Time;durP1;ratioP1;P1;durP2;ratioP2;P2;SDS_P1;SDS_P2;PMS_P1;PMS_P2;Temp;Humidity;BMP_temperature;BMP_pressure;BME280_temperature;BME280_humidity;BME280_pressure;Samples;Min_cycle;Max_cycle;Signal;HPM_P1;HPM_P2
2023/03/09 00:00:12;;;;;;;11.87;8.17;;;;;;;10.83;67.98;98789.81;5113244;28;20203;-65
2023/03/09 00:02:39;;;;;;;10.63;8.30;;;;;;;10.81;68.49;98801.16;5113407;28;20197;-67
2023/03/09 00:05:07;;;;;;;10.03;8.50;;;;;;;10.84;68.52;98790.63;5113578;28;20720;-66
2023/03/09 00:07:34;;;;;;;9.73;8.30;;;;;;;10.90;68.49;98785.19;5113393;28;20642;-66
2023/03/09 00:10:04;;;;;;;9.30;7.50;;;;;;;10.85;68.21;98780.19;5113126;28;20198;-65
2023/03/09 00:12:31;;;;;;;8.83;7.93;;;;;;;10.85;68.24;98790.56;5113517;28;20187;-67
2023/03/09 00:14:59;;;;;;;11.90;9.00;;;;;;;10.91;68.35;98794.66;5113098;28;20201;-67
2023/03/09 00:17:26;;;;;;;10.27;7.83;;;;;;;10.78;68.65;98786.53;5113339;28;20214;-66
2023/03/09 00:20:00;;;;;;;9.93;8.40;;;;;;;10.71;69.05;98777.34;5113882;28;20291;-66
2023/03/09 00:22:27;;;;;;;8.97;8.00;;;;;;;10.69;69.27;98773.94;5113063;28;20198;-65
2023/03/09 00:24:55;;;;;;;12.83;8.47;;;;;;;10.52;71.28;98773.78;5113263;28;20198;-65
2023/03/09 00:27:22;;;;;;;11.23;8.30;;;;;;;10.47;71.61;98775.72;5112507;28;20215;-66
2023/03/09 00:29:49;;;;;;;10.10;8.50;;;;;;;10.56;71.12;98772.75;5113094;28;20572;-64
2023/03/09 00:32:18;;;;;;;11.10;8.07;;;;;;;10.51;70.88;98769.50;5111814;28;20286;-60
2023/03/09 00:34:44;;;;;;;12.77;7.97;;;;;;;10.48;71.19;98765.28;5111466;28;20364;-60
2023/03/09 00:37:11;;;;;;;8.93;7.83;;;;;;;10.47;70.04;98760.16;5112206;28;20187;-60
2023/03/09 00:39:38;;;;;;;7.67;6.90;;;;;;;10.48;70.30;98760.09;5121960;27;20194;-66
2023/03/09 00:42:05;;;;;;;9.03;6.60;;;;;;;10.44;70.01;98765.47;5132696;27;20194;-61
2023/03/09 00:44:32;;;;;;;7.33;6.63;;;;;;;10.50;69.81;98757.41;5131988;27;20200;-61
2023/03/09 00:46:59;;;;;;;9.50;7.40;;;;;;;10.51;69.87;98759.09;5131797;27;20221;-60
2023/03/09 00:49:27;;;;;;;8.27;7.10;;;;;;;10.57;68.87;98750.25;5131697;27;20196;-61
2023/03/09 00:51:54;;;;;;;8.73;7.83;;;;;;;10.59;69.06;98753.63;5131640;27;20204;-59
2023/03/09 00:54:21;;;;;;;9.03;7.87;;;;;;;10.58;69.41;98752.78;5132416;27;20194;-65
2023/03/09 00:56:49;;;;;;;9.70;7.30;;;;;;;10.65;68.26;98751.63;5133027;27;20186;-66
2023/03/09 00:59:16;;;;;;;8.17;6.57;;;;;;;10.61;67.98;98741.44;5133353;27;20198;-67
2023/03/09 01:01:43;;;;;;;8.90;7.07;;;;;;;10.55;68.23;98733.00;5132914;27;20200;-66
2023/03/09 01:04:09;;;;;;;6.70;5.77;;;;;;;10.52;68.60;98737.44;5133197;27;20204;-66
2023/03/09 01:06:38;;;;;;;6.20;5.60;;;;;;;10.52;68.30;98742.63;5132798;27;20221;-67
2023/03/09 01:09:05;;;;;;;6.53;5.90;;;;;;;10.50;68.71;98741.84;5133062;27;20754;-66
2023/03/09 01:11:32;;;;;;;6.27;5.70;;;;;;;10.58;67.83;98746.75;5132607;27;20193;-66
2023/03/09 01:13:59;;;;;;;6.17;5.13;;;;;;;10.56;67.45;98744.22;5133138;27;20305;-65
2023/03/09 01:16:26;;;;;;;5.93;5.40;;;;;;;10.52;67.48;98735.69;5132697;27;20609;-65
2023/03/09 01:18:53;;;;;;;5.40;4.90;;;;;;;10.51;67.37;98726.22;5132435;27;20200;-66
2023/03/09 01:21:20;;;;;;;5.77;4.60;;;;;;;10.53;67.63;98720.97;5132733;27;20196;-65
2023/03/09 01:23:48;;;;;;;6.97;4.20;;;;;;;10.57;67.45;98724.31;5132112;27;20194;-65
2023/03/09 01:26:15;;;;;;;4.73;4.30;;;;;;;10.60;67.45;98730.22;5130839;27;20202;-60
2023/03/09 01:28:42;;;;;;;4.53;3.97;;;;;;;10.63;67.00;98724.88;5131553;27;20197;-65
2023/03/09 01:31:11;;;;;;;4.23;3.83;;;;;;;10.73;66.01;98721.00;5132491;27;20208;-65
2023/03/09 01:33:38;;;;;;;8.33;3.47;;;;;;;10.80;65.86;98714.66;5132215;27;20194;-65
2023/03/09 01:36:07;;;;;;;4.47;4.07;;;;;;;10.74;66.21;98721.84;5131983;27;20220;-65
2023/03/09 01:38:34;;;;;;;3.87;3.57;;;;;;;10.79;66.17;98720.75;5132107;27;20243;-65
2023/03/09 01:41:03;;;;;;;4.20;3.90;;;;;;;10.77;65.90;98706.13;5132089;27;20566;-66
2023/03/09 01:43:36;;;;;;;4.00;3.70;;;;;;;10.85;65.69;98707.50;5131771;27;20194;-65
2023/03/09 01:46:36;;;;;;;4.07;3.53;;;;;;;10.85;65.13;98704.91;5131949;27;20288;-66
2023/03/09 01:49:21;;;;;;;4.13;3.47;;;;;;;10.90;64.79;98702.13;5131639;27;20579;-60
2023/03/09 01:51:55;;;;;;;4.80;3.70;;;;;;;10.99;64.45;98696.50;5131070;27;20198;-66
2023/03/09 01:54:26;;;;;;;4.30;3.90;;;;;;;10.96;64.48;98698.41;5131727;27;20190;-66
2023/03/09 01:56:59;;;;;;;4.43;4.00;;;;;;;10.87;65.25;98697.03;5131470;27;20192;-65
2023/03/09 01:59:31;;;;;;;3.90;3.40;;;;;;;10.88;65.42;98696.13;5131197;27;20197;-60
2023/03/09 02:01:59;;;;;;;5.80;3.80;;;;;;;10.91;64.80;98696.00;5130565;27;20193;-60
2023/03/09 02:04:31;;;;;;;4.10;3.70;;;;;;;10.92;64.84;98700.31;5130266;27;20194;-60
2023/03/09 02:07:00;;;;;;;4.87;4.13;;;;;;;10.87;64.62;98691.84;5130690;27;21004;-61
2023/03/09 02:09:33;;;;;;;4.40;4.07;;;;;;;10.83;65.44;98687.72;5130866;27;20201;-65
2023/03/09 02:12:02;;;;;;;4.57;3.87;;;;;;;10.83;65.29;98685.13;5131634;27;20271;-65
2023/03/09 02:14:29;;;;;;;4.37;3.97;;;;;;;10.75;65.66;98682.00;5131106;27;20205;-60
2023/03/09 02:16:56;;;;;;;13.00;4.40;;;;;;;10.72;66.22;98690.75;5129848;27;20186;-60
2023/03/09 02:19:47;;;;;;;10.50;3.70;;;;;;;10.66;66.75;98685.84;5130468;27;20202;-60
2023/03/09 02:22:14;;;;;;;3.80;3.50;;;;;;;10.68;66.97;98691.81;5129907;27;20201;-61
2023/03/09 02:24:50;;;;;;;4.37;3.27;;;;;;;10.60;67.54;98687.84;5130124;27;20204;-60
2023/03/09 02:27:20;;;;;;;3.70;3.40;;;;;;;10.61;67.67;98679.97;5130606;27;20217;-61
2023/03/09 02:29:47;;;;;;;3.27;3.03;;;;;;;10.62;68.33;98688.59;5130363;27;20267;-61
2023/03/09 02:32:15;;;;;;;3.27;3.00;;;;;;;10.62;68.27;98686.00;5130278;27;20194;-61
2023/03/09 02:34:42;;;;;;;3.07;2.87;;;;;;;10.70;68.20;98679.63;5130027;27;20194;-60
2023/03/09 02:37:26;;;;;;;3.73;3.10;;;;;;;10.72;67.89;98671.75;5130463;27;20186;-60
2023/03/09 02:39:57;;;;;;;3.03;2.83;;;;;;;10.72;67.61;98666.56;5129818;27;20233;-61
2023/03/09 02:42:26;;;;;;;3.70;2.63;;;;;;;10.72;67.58;98661.38;5130188;27;20586;-61
2023/03/09 02:44:54;;;;;;;2.80;2.60;;;;;;;10.79;67.56;98661.03;5129862;28;20233;-61
2023/03/09 02:47:23;;;;;;;2.63;2.43;;;;;;;10.85;66.94;98668.56;5129874;28;20230;-61
2023/03/09 02:49:50;;;;;;;3.07;2.77;;;;;;;10.84;67.16;98661.66;5131084;28;20692;-66
2023/03/09 02:52:17;;;;;;;3.13;2.43;;;;;;;10.79;66.92;98662.78;5131338;28;20202;-66
2023/03/09 02:54:44;;;;;;;4.90;2.80;;;;;;;10.81;67.22;98666.19;5129885;28;20204;-62
2023/03/09 02:57:11;;;;;;;2.37;2.27;;;;;;;10.83;67.09;98664.34;5131137;28;20190;-65
2023/03/09 02:59:39;;;;;;;3.00;2.80;;;;;;;10.77;67.10;98664.59;5131207;28;20193;-66
2023/03/09 03:02:06;;;;;;;2.93;2.73;;;;;;;10.82;67.03;98662.66;5131346;28;20197;-66
2023/03/09 03:04:33;;;;;;;2.90;2.70;;;;;;;10.72;67.23;98656.19;5131162;28;20198;-66
2023/03/09 03:07:00;;;;;;;2.87;2.67;;;;;;;10.75;67.31;98667.28;5130785;28;20194;-67
2023/03/09 03:09:27;;;;;;;3.63;2.90;;;;;;;10.75;67.16;98667.28;5131257;28;20732;-66
2023/03/09 03:11:54;;;;;;;2.70;2.50;;;;;;;10.82;67.12;98681.69;5131525;28;20575;-66
2023/03/09 03:14:21;;;;;;;3.37;3.07;;;;;;;10.70;67.50;98679.63;5131149;28;20216;-66
2023/03/09 03:16:49;;;;;;;3.40;3.10;;;;;;;10.69;67.81;98690.91;5130598;28;20209;-66
2023/03/09 03:19:16;;;;;;;4.03;3.73;;;;;;;10.63;69.36;98692.88;5131221;28;20213;-65
2023/03/09 03:21:43;;;;;;;6.83;5.00;;;;;;;10.32;70.17;98688.97;5130665;28;20194;-65
2023/03/09 03:24:10;;;;;;;11.23;5.73;;;;;;;9.98;72.03;98689.47;5130756;28;20281;-64
2023/03/09 03:26:36;;;;;;;8.73;5.80;;;;;;;9.74;74.25;98690.41;5130805;28;20193;-66
2023/03/09 03:29:03;;;;;;;6.77;6.13;;;;;;;9.41;78.45;98688.19;5131129;28;20221;-66
2023/03/09 03:31:30;;;;;;;15.77;5.90;;;;;;;9.55;76.96;98694.63;5131041;28;20194;-66
2023/03/09 03:34:00;;;;;;;8.20;6.03;;;;;;;9.66;76.75;98708.00;5130447;28;20197;-66
2023/03/09 03:36:27;;;;;;;12.07;6.03;;;;;;;9.59;76.31;98702.22;5131232;28;20581;-66
2023/03/09 03:38:53;;;;;;;7.20;6.40;;;;;;;9.55;77.42;98702.38;5130849;28;20198;-66
2023/03/09 03:41:20;;;;;;;8.80;6.23;;;;;;;9.56;77.15;98698.91;5131094;28;20206;-66
2023/03/09 03:43:47;;;;;;;12.30;5.97;;;;;;;9.43;77.45;98701.09;5130587;28;20194;-65
2023/03/09 03:46:14;;;;;;;11.57;5.90;;;;;;;9.45;78.41;98702.75;5130826;28;20199;-65
2023/03/09 03:48:42;;;;;;;9.47;6.83;;;;;;;9.38;78.45;98690.06;5130208;28;20693;-65
2023/03/09 03:51:10;;;;;;;8.00;6.20;;;;;;;9.36;78.38;98695.31;5133432;27;20198;-66
2023/03/09 03:53:37;;;;;;;12.10;6.17;;;;;;;9.33;79.36;98702.34;5125943;27;20186;-60
2023/03/09 03:56:05;;;;;;;11.93;6.20;;;;;;;9.30;79.52;98705.03;5113013;28;20194;-65
2023/03/09 03:58:32;;;;;;;9.97;7.20;;;;;;;9.22;80.78;98702.75;5113176;28;20197;-61
2023/03/09 04:00:58;;;;;;;11.77;6.93;;;;;;;9.23;80.01;98708.75;5112266;28;20206;-59
2023/03/09 04:03:25;;;;;;;17.27;7.30;;;;;;;9.11;81.38;98699.69;5112695;28;20195;-60
2023/03/09 04:05:52;;;;;;;11.57;6.73;;;;;;;9.13;81.43;98707.41;5112189;28;20194;-61
2023/03/09 04:08:21;;;;;;;18.80;7.23;;;;;;;9.18;81.64;98710.66;5112313;28;20221;-66
2023/03/09 04:10:48;;;;;;;10.30;7.07;;;;;;;9.10;82.48;98716.13;5113803;28;20633;-65
2023/03/09 04:13:15;;;;;;;8.73;7.63;;;;;;;9.15;81.48;98716.78;5113934;28;20194;-61
2023/03/09 04:15:46;;;;;;;7.80;7.07;;;;;;;9.13;81.47;98716.00;5111559;28;20203;-59
2023/03/09 04:18:13;;;;;;;10.10;6.77;;;;;;;9.01;81.50;98695.75;5111724;28;20191;-59
2023/03/09 04:20:41;;;;;;;7.80;6.53;;;;;;;9.10;80.52;98714.38;5111706;28;20505;-60
2023/03/09 04:23:08;;;;;;;7.07;6.47;;;;;;;9.07;80.72;98708.44;5109165;28;20193;-60
2023/03/09 04:25:37;;;;;;;7.87;6.03;;;;;;;9.04;80.79;98706.81;5105908;28;20200;-64
2023/03/09 04:28:04;;;;;;;11.10;5.93;;;;;;;8.99;81.13;98711.31;5107949;28;20254;-65
2023/03/09 04:30:31;;;;;;;6.27;5.67;;;;;;;9.10;80.46;98723.88;5109023;28;20201;-66
2023/03/09 04:32:58;;;;;;;7.63;5.40;;;;;;;9.29;79.00;98711.13;5110091;28;20190;-67
2023/03/09 04:35:25;;;;;;;9.40;6.20;;;;;;;9.43;77.85;98720.06;5112303;28;20569;-65
2023/03/09 04:37:53;;;;;;;9.30;7.57;;;;;;;9.50;76.75;98719.84;5109321;28;20701;-65
2023/03/09 04:40:20;;;;;;;7.13;6.43;;;;;;;9.54;76.80;98714.50;5108398;28;20198;-65
2023/03/09 04:42:48;;;;;;;7.30;5.83;;;;;;;9.57;76.71;98716.97;5111890;28;20201;-60
2023/03/09 04:45:15;;;;;;;11.07;6.53;;;;;;;9.61;75.85;98720.28;5111420;28;20195;-61
2023/03/09 04:47:42;;;;;;;7.93;6.50;;;;;;;9.62;76.65;98714.19;5109550;28;20698;-67
2023/03/09 04:50:11;;;;;;;8.87;6.97;;;;;;;9.62;76.38;98717.63;5111776;28;20558;-67
2023/03/09 04:52:38;;;;;;;8.10;6.30;;;;;;;9.54;76.73;98698.09;5111935;28;20198;-67
2023/03/09 04:55:05;;;;;;;10.10;7.50;;;;;;;9.57;76.42;98708.38;5091474;28;20322;-66
2023/03/09 04:57:32;;;;;;;9.10;7.33;;;;;;;9.57;77.23;98713.53;5091100;28;20247;-66
2023/03/09 05:00:02;;;;;;;10.97;8.37;;;;;;;9.46;77.40;98703.59;5092778;28;20234;-66
2023/03/09 05:02:29;;;;;;;9.27;7.33;;;;;;;9.42;78.44;98705.44;5089114;28;20448;-66
2023/03/09 05:04:59;;;;;;;11.97;7.90;;;;;;;9.43;78.76;98716.63;5091565;28;20360;-60
2023/03/09 05:07:26;;;;;;;18.03;9.77;;;;;;;9.47;78.91;98713.03;5090074;28;20262;-60
2023/03/09 05:09:53;;;;;;;16.10;8.30;;;;;;;9.44;79.19;98701.03;5106509;28;20218;-60
2023/03/09 05:12:20;;;;;;;12.77;8.13;;;;;;;9.54;79.03;98713.66;5110975;27;20306;-65
2023/03/09 05:14:46;;;;;;;10.07;8.50;;;;;;;9.53;78.48;98706.78;5111533;27;20689;-60
2023/03/09 05:17:15;;;;;;;14.30;7.83;;;;;;;9.61;78.85;98720.28;5130717;27;20221;-58
2023/03/09 05:19:42;;;;;;;13.33;7.70;;;;;;;9.65;78.49;98725.31;5130727;27;20214;-60
2023/03/09 05:22:09;;;;;;;14.00;8.43;;;;;;;9.66;77.04;98729.59;5130344;27;20222;-60
2023/03/09 05:24:36;;;;;;;24.97;9.20;;;;;;;9.74;76.78;98726.69;5130934;27;20246;-66
2023/03/09 05:27:03;;;;;;;20.13;9.40;;;;;;;9.87;77.17;98719.28;5119032;27;20223;-60
2023/03/09 05:29:30;;;;;;;21.83;11.10;;;;;;;10.02;76.39;98714.38;5109709;28;20226;-61
2023/03/09 05:31:56;;;;;;;29.00;13.00;;;;;;;10.03;76.75;98710.88;5109460;27;20216;-60
2023/03/09 05:34:25;;;;;;;27.63;13.03;;;;;;;10.15;75.47;98707.81;5110140;28;20608;-60
2023/03/09 05:36:52;;;;;;;24.03;13.93;;;;;;;10.29;75.72;98709.00;5109137;27;20225;-60
2023/03/09 05:39:19;;;;;;;40.33;13.50;;;;;;;10.67;75.61;98720.41;5110242;28;20242;-61
2023/03/09 05:41:46;;;;;;;29.33;15.30;;;;;;;12.07;69.45;98724.56;5109018;27;20223;-65
2023/03/09 05:44:13;;;;;;;34.63;18.13;;;;;;;13.36;61.60;98728.50;5109515;28;20228;-66
2023/03/09 05:46:40;;;;;;;32.97;18.00;;;;;;;14.51;57.38;98727.34;5127244;27;20240;-65
2023/03/09 05:49:08;;;;;;;49.03;21.90;;;;;;;15.80;52.53;98729.16;5130985;27;20222;-66
2023/03/09 05:51:39;;;;;;;41.10;20.80;;;;;;;17.26;48.59;98730.06;5119365;27;20222;-65
2023/03/09 05:54:06;;;;;;;32.97;17.07;;;;;;;18.78;44.06;98734.06;5109370;28;20194;-61
2023/03/09 05:56:33;;;;;;;38.03;16.90;;;;;;;20.15;40.79;98739.19;5109667;28;20191;-61
2023/03/09 05:59:00;;;;;;;35.78;14.57;;;;;;;20.64;38.37;98721.13;5111015;28;20194;-66
2023/03/09 06:01:29;;;;;;;37.05;15.73;;;;;;;22.06;36.84;98738.00;5110971;28;20244;-66
2023/03/09 06:03:56;;;;;;;32.03;14.63;;;;;;;23.23;34.62;98739.75;5110516;28;20271;-66
2023/03/09 06:06:23;;;;;;;28.77;15.50;;;;;;;24.26;32.80;98745.78;5110729;28;20205;-67
2023/03/09 06:08:52;;;;;;;34.47;15.80;;;;;;;25.03;31.53;98745.19;5110495;28;20245;-61
2023/03/09 06:11:19;;;;;;;28.85;15.25;;;;;;;25.85;30.32;98736.72;5110591;28;20732;-61
2023/03/09 06:13:46;;;;;;;32.25;15.25;;;;;;;25.89;29.58;98750.53;5110132;28;20197;-67
2023/03/09 06:16:15;;;;;;;28.58;16.92;;;;;;;26.06;29.21;98739.00;5110641;28;20194;-66
2023/03/09 06:18:42;;;;;;;30.85;17.15;;;;;;;26.50;28.66;98752.09;5110149;28;20205;-66
2023/03/09 06:21:10;;;;;;;33.88;19.08;;;;;;;27.26;27.79;98754.47;5110514;28;20408;-61
2023/03/09 06:23:37;;;;;;;37.28;19.77;;;;;;;27.39;27.39;98757.47;5110451;28;20523;-62
2023/03/09 06:26:08;;;;;;;38.28;18.60;;;;;;;27.71;27.00;98733.41;5110114;28;20198;-61
2023/03/09 06:28:35;;;;;;;25.40;15.90;;;;;;;27.05;27.36;98771.81;5110091;28;20228;-62
2023/03/09 06:31:06;;;;;;;25.75;14.98;;;;;;;27.04;27.02;98767.50;5109980;28;20201;-65
2023/03/09 06:33:33;;;;;;;25.50;13.85;;;;;;;27.04;27.64;98771.97;5110128;28;20277;-61
2023/03/09 06:36:01;;;;;;;23.15;14.32;;;;;;;28.00;25.96;98778.13;5110156;28;20194;-61
2023/03/09 06:38:28;;;;;;;27.00;14.20;;;;;;;28.76;25.77;98777.44;5108352;28;20190;-65
2023/03/09 06:40:55;;;;;;;27.15;16.75;;;;;;;28.48;25.54;98782.44;5110029;28;20218;-66
2023/03/09 06:43:24;;;;;;;31.20;16.58;;;;;;;27.83;26.31;98765.88;5110136;28;20226;-66
2023/03/09 06:45:51;;;;;;;26.98;15.98;;;;;;;26.68;27.25;98758.94;5109706;28;20191;-67
2023/03/09 06:48:17;;;;;;;34.17;13.57;;;;;;;25.00;29.13;98742.00;5109669;28;20237;-61
2023/03/09 06:50:44;;;;;;;21.10;12.63;;;;;;;24.12;30.27;98759.50;5109446;28;20190;-62
2023/03/09 06:53:11;;;;;;;21.42;11.35;;;;;;;23.55;31.16;98757.94;5109748;28;20198;-62
2023/03/09 06:55:39;;;;;;;17.80;8.65;;;;;;;22.72;31.91;98754.94;5109918;28;20704;-65
2023/03/09 06:58:06;;;;;;;12.95;8.77;;;;;;;22.32;32.37;98755.06;5108585;28;20207;-66
2023/03/09 07:00:38;;;;;;;25.17;8.90;;;;;;;21.73;33.69;98754.97;5101520;28;20613;-66
2023/03/09 07:03:08;;;;;;;23.30;10.82;;;;;;;21.01;35.03;98760.22;5088762;28;20698;-61
2023/03/09 07:05:35;;;;;;;35.30;16.92;;;;;;;20.26;37.78;98757.63;5088728;28;20283;-66
2023/03/09 07:08:02;;;;;;;36.75;15.93;;;;;;;19.63;39.45;98753.03;5102446;28;20230;-61
2023/03/09 07:10:29;;;;;;;35.53;15.15;;;;;;;19.41;40.38;98752.00;5108861;28;20206;-61
2023/03/09 07:12:56;;;;;;;30.08;15.02;;;;;;;19.43;40.35;98752.72;5108825;28;20201;-61
2023/03/09 07:15:23;;;;;;;28.45;13.98;;;;;;;19.70;40.05;98755.06;5109936;28;20701;-65
2023/03/09 07:17:51;;;;;;;32.53;13.18;;;;;;;19.49;40.71;98748.84;5109503;28;20194;-61
2023/03/09 07:20:18;;;;;;;34.03;12.98;;;;;;;19.38;40.65;98749.63;5109588;28;20198;-61
2023/03/09 07:22:46;;;;;;;41.30;12.27;;;;;;;19.37;40.88;98747.94;5099598;28;20218;-62
2023/03/09 07:25:12;;;;;;;26.27;12.40;;;;;;;19.52;41.16;98751.22;5110562;28;20218;-65
2023/03/09 07:27:39;;;;;;;18.05;10.57;;;;;;;19.48;40.69;98739.22;5112851;28;20226;-65
2023/03/09 07:30:09;;;;;;;21.77;9.63;;;;;;;19.17;41.30;98738.97;5112816;28;20329;-65
2023/03/09 07:32:35;;;;;;;18.77;10.30;;;;;;;19.09;41.76;98738.69;5112647;28;20222;-61
2023/03/09 07:35:04;;;;;;;17.67;9.73;;;;;;;18.66;42.75;98729.72;5112737;28;20233;-61
2023/03/09 07:37:31;;;;;;;15.35;9.95;;;;;;;18.57;43.29;98736.47;5112832;28;20326;-61
2023/03/09 07:39:58;;;;;;;14.55;8.75;;;;;;;18.33;43.79;98739.09;5111502;28;20214;-64
2023/03/09 07:42:25;;;;;;;14.10;8.93;;;;;;;18.19;44.63;98735.78;5128265;27;20226;-65
2023/03/09 07:44:52;;;;;;;11.65;8.13;;;;;;;18.20;44.15;98732.22;5132472;27;20220;-62
2023/03/09 07:47:19;;;;;;;10.77;7.93;;;;;;;17.88;44.48;98734.53;5132616;27;20237;-62
2023/03/09 07:49:46;;;;;;;19.13;8.93;;;;;;;17.74;44.89;98723.22;5133466;27;20217;-62
2023/03/09 07:52:30;;;;;;;11.98;8.02;;;;;;;17.39;46.17;98702.03;5133925;27;20239;-61
2023/03/09 07:54:57;;;;;;;14.35;8.05;;;;;;;17.14;47.11;98701.22;5133526;27;20229;-63
2023/03/09 07:57:24;;;;;;;18.27;8.95;;;;;;;17.20;47.06;98685.91;5132881;27;20200;-61
2023/03/09 07:59:53;;;;;;;21.00;9.00;;;;;;;17.25;47.31;98710.03;5131211;27;20255;-60
2023/03/09 08:02:20;;;;;;;15.48;8.82;;;;;;;17.50;46.74;98714.41;5132966;27;20579;-61
2023/03/09 08:04:47;;;;;;;18.13;8.93;;;;;;;17.91;46.46;98719.41;5132971;27;20588;-61
2023/03/09 08:07:16;;;;;;;22.25;9.77;;;;;;;18.01;45.80;98711.69;5133568;27;20201;-60
2023/03/09 08:09:43;;;;;;;12.90;8.05;;;;;;;17.70;46.12;98713.06;5133282;27;20221;-60
2023/03/09 08:12:10;;;;;;;19.85;8.93;;;;;;;17.65;46.18;98716.00;5133460;27;20202;-62
2023/03/09 08:14:37;;;;;;;16.17;8.23;;;;;;;17.74;45.88;98709.25;5132952;27;20190;-59
2023/03/09 08:17:04;;;;;;;13.18;8.02;;;;;;;17.86;45.61;98716.25;5133136;27;20190;-60
2023/03/09 08:19:32;;;;;;;15.90;8.40;;;;;;;18.11;44.85;98718.81;5132896;27;20190;-61
2023/03/09 08:21:59;;;;;;;10.25;8.68;;;;;;;18.31;44.26;98712.09;5133187;27;20573;-60
2023/03/09 08:24:27;;;;;;;11.20;8.05;;;;;;;18.52;43.52;98704.41;5132879;27;20225;-61
2023/03/09 08:26:55;;;;;;;9.93;7.68;;;;;;;18.59;43.27;98702.22;5132801;27;20193;-62
2023/03/09 08:29:22;;;;;;;18.50;11.70;;;;;;;18.59;43.43;98697.81;5132797;27;20254;-60
2023/03/09 08:31:49;;;;;;;9.25;7.32;;;;;;;18.64;42.68;98708.81;5132624;27;20224;-61
2023/03/09 08:34:18;;;;;;;19.23;15.02;;;;;;;18.49;43.68;98707.28;5133015;27;20198;-64
2023/03/09 08:36:45;;;;;;;11.63;7.97;;;;;;;18.65;42.93;98702.59;5133001;27;20224;-62
2023/03/09 08:39:13;;;;;;;8.52;6.68;;;;;;;18.80;42.67;98698.00;5132839;27;20194;-64
2023/03/09 08:41:41;;;;;;;8.30;5.95;;;;;;;18.97;41.98;98691.44;5132473;27;20303;-63
2023/03/09 08:44:09;;;;;;;9.48;6.55;;;;;;;19.22;41.78;98709.66;5133120;27;20237;-63
2023/03/09 08:46:36;;;;;;;10.48;7.07;;;;;;;19.34;41.13;98700.81;5132378;27;20586;-63
2023/03/09 08:49:03;;;;;;;11.05;7.50;;;;;;;19.48;40.76;98705.88;5132669;27;20213;-63
2023/03/09 08:51:30;;;;;;;9.35;6.25;;;;;;;19.46;40.43;98704.28;5132689;27;20194;-63
2023/03/09 08:53:57;;;;;;;9.75;5.80;;;;;;;18.98;41.04;98701.84;5132354;27;20194;-60
2023/03/09 08:56:24;;;;;;;12.05;7.88;;;;;;;19.18;40.88;98705.59;5132482;27;20194;-63
2023/03/09 08:58:52;;;;;;;21.27;14.55;;;;;;;19.15;41.18;98706.66;5132165;27;20200;-63
2023/03/09 09:01:19;;;;;;;13.93;9.82;;;;;;;19.05;40.89;98707.50;5132389;27;20197;-63
2023/03/09 09:03:46;;;;;;;9.27;8.15;;;;;;;18.98;41.02;98698.38;5132485;27;20585;-62
2023/03/09 09:06:15;;;;;;;9.65;6.22;;;;;;;18.77;41.49;98704.31;5132434;27;20576;-62
2023/03/09 09:08:43;;;;;;;8.60;5.20;;;;;;;18.88;41.02;98708.75;5132202;27;20227;-62
2023/03/09 09:11:13;;;;;;;9.38;6.13;;;;;;;19.00;41.21;98709.63;5132182;27;20271;-62
2023/03/09 09:13:40;;;;;;;11.02;7.20;;;;;;;18.97;41.58;98694.91;5131720;27;20276;-62
2023/03/09 09:16:10;;;;;;;8.10;5.50;;;;;;;18.78;41.22;98690.22;5132010;27;20285;-61
2023/03/09 09:18:38;;;;;;;8.02;6.75;;;;;;;18.91;40.95;98689.28;5131950;27;20198;-62
2023/03/09 09:21:07;;;;;;;9.40;6.10;;;;;;;18.93;41.16;98679.50;5132015;27;20194;-61
2023/03/09 09:23:34;;;;;;;6.45;5.80;;;;;;;19.13;40.79;98686.69;5132038;27;20212;-62
2023/03/09 09:26:01;;;;;;;7.82;4.80;;;;;;;19.24;40.29;98684.06;5131808;27;20201;-63
2023/03/09 09:28:28;;;;;;;5.22;4.72;;;;;;;19.37;40.08;98673.44;5131795;27;20224;-61
2023/03/09 09:30:55;;;;;;;12.25;7.70;;;;;;;19.30;40.11;98670.44;5131585;27;20214;-63
2023/03/09 09:33:25;;;;;;;6.38;5.60;;;;;;;19.37;39.74;98676.06;5131739;27;20665;-61
2023/03/09 09:35:57;;;;;;;6.13;4.90;;;;;;;19.29;39.60;98665.31;5131582;27;20198;-61
2023/03/09 09:38:25;;;;;;;5.57;5.00;;;;;;;19.32;39.41;98652.72;5131621;27;20190;-62
2023/03/09 09:40:53;;;;;;;10.93;5.90;;;;;;;19.53;39.49;98658.97;5131539;27;20194;-63
2023/03/09 09:43:22;;;;;;;4.93;4.18;;;;;;;19.65;38.66;98661.59;5131262;27;20204;-60
2023/03/09 09:45:50;;;;;;;5.32;4.13;;;;;;;19.82;38.72;98666.34;5130764;27;20662;-60
2023/03/09 09:48:18;;;;;;;3.95;3.65;;;;;;;19.90;37.97;98666.56;5129852;27;20677;-61
2023/03/09 09:51:07;;;;;;;6.38;3.42;;;;;;;19.88;37.87;98660.59;5125061;27;20362;-60
2023/03/09 09:53:44;;;;;;;8.10;4.00;;;;;;;19.96;37.93;98662.63;5110742;28;20696;-61
2023/03/09 09:56:16;;;;;;;9.00;3.97;;;;;;;19.97;37.31;98659.88;5110921;28;20194;-60
2023/03/09 09:58:48;;;;;;;4.32;4.03;;;;;;;19.91;37.29;98648.00;5108209;28;20198;-60
2023/03/09 10:01:21;;;;;;;4.50;3.97;;;;;;;19.89;37.43;98654.38;5090447;28;20204;-62
2023/03/09 10:03:52;;;;;;;4.95;4.45;;;;;;;20.11;37.47;98641.13;5089986;28;20583;-63
2023/03/09 10:06:23;;;;;;;5.68;5.20;;;;;;;20.29;37.30;98644.06;5090610;28;20558;-61
2023/03/09 10:08:54;;;;;;;10.13;4.05;;;;;;;20.48;37.14;98646.03;5090356;28;20199;-62
2023/03/09 10:11:24;;;;;;;4.15;3.80;;;;;;;20.52;37.17;98629.00;5090253;28;20225;-63
2023/03/09 10:13:55;;;;;;;4.90;3.15;;;;;;;20.49;36.86;98627.47;5090004;28;20199;-63
2023/03/09 10:16:26;;;;;;;5.72;3.80;;;;;;;20.52;36.87;98626.38;5090196;28;20307;-60
2023/03/09 10:18:57;;;;;;;3.38;3.15;;;;;;;20.54;36.69;98616.53;5090214;28;20671;-63
2023/03/09 10:21:32;;;;;;;4.32;3.53;;;;;;;20.55;36.80;98602.38;5090054;28;20286;-62
2023/03/09 10:24:11;;;;;;;3.83;3.53;;;;;;;20.73;36.45;98592.91;5089814;28;20194;-60
2023/03/09 10:26:44;;;;;;;3.67;3.00;;;;;;;20.82;35.73;98596.56;5089749;28;20205;-64
2023/03/09 10:29:20;;;;;;;4.03;3.00;;;;;;;20.81;35.64;98593.09;5089902;28;20201;-63
2023/03/09 10:31:53;;;;;;;5.65;3.20;;;;;;;20.79;35.85;98595.03;5089781;28;20202;-59
2023/03/09 10:34:24;;;;;;;6.18;3.22;;;;;;;20.82;35.85;98588.66;5089741;28;20207;-60
2023/03/09 10:37:01;;;;;;;4.05;3.15;;;;;;;20.92;35.45;98597.44;5089651;28;20203;-62
2023/03/09 10:39:34;;;;;;;4.72;4.28;;;;;;;20.97;35.38;98590.84;5089800;28;20195;-63
2023/03/09 10:42:12;;;;;;;6.00;4.18;;;;;;;20.99;35.96;98590.69;5089557;28;20707;-59
2023/03/09 10:44:39;;;;;;;7.38;5.90;;;;;;;21.08;35.80;98584.63;5094038;28;20295;-61
2023/03/09 10:47:06;;;;;;;7.80;4.70;;;;;;;21.16;35.31;98576.03;5088597;28;20783;-61
2023/03/09 10:49:33;;;;;;;4.93;3.90;;;;;;;20.84;35.72;98569.09;5089159;28;20230;-66
2023/03/09 10:52:05;;;;;;;4.85;3.50;;;;;;;20.47;36.16;98554.75;5109124;28;20758;-61
2023/03/09 10:54:37;;;;;;;4.35;3.60;;;;;;;20.22;36.79;98551.50;5110004;28;20205;-61
2023/03/09 10:57:22;;;;;;;5.32;3.67;;;;;;;20.05;37.15;98541.53;5110487;28;20202;-63
2023/03/09 10:59:58;;;;;;;8.82;4.40;;;;;;;19.99;37.08;98534.13;5110867;28;20640;-61
2023/03/09 11:02:31;;;;;;;9.40;5.22;;;;;;;20.02;36.81;98533.88;5115011;28;20247;-67
2023/03/09 11:04:58;;;;;;;5.82;4.20;;;;;;;20.03;37.23;98530.28;5114384;28;20244;-65
2023/03/09 11:07:31;;;;;;;6.10;4.70;;;;;;;19.92;36.91;98523.28;5114377;28;20190;-67
2023/03/09 11:10:02;;;;;;;16.23;8.18;;;;;;;20.09;36.93;98529.75;5113657;28;20249;-62
2023/03/09 11:12:35;;;;;;;5.60;4.88;;;;;;;20.21;36.50;98522.63;5114023;28;20198;-66
2023/03/09 11:15:04;;;;;;;9.38;4.53;;;;;;;20.17;36.28;98515.97;5111750;28;20198;-60
2023/03/09 11:17:37;;;;;;;8.68;4.47;;;;;;;20.09;36.61;98508.69;5114099;28;20640;-66
2023/03/09 11:20:29;;;;;;;7.80;4.38;;;;;;;20.00;36.62;98511.25;5113825;28;20186;-66
2023/03/09 11:23:04;;;;;;;5.07;3.80;;;;;;;19.84;36.57;98498.53;5114428;28;20298;-67
2023/03/09 11:25:51;;;;;;;4.65;3.80;;;;;;;19.70;36.78;98494.41;5114325;28;20201;-66
2023/03/09 11:28:26;;;;;;;4.55;3.38;;;;;;;19.52;37.14;98482.78;5096965;28;20206;-66
2023/03/09 11:30:57;;;;;;;6.15;3.60;;;;;;;19.44;36.73;98470.19;5093282;28;20223;-67
2023/03/09 11:33:26;;;;;;;6.35;3.97;;;;;;;19.54;37.17;98471.13;5111512;28;20199;-66
2023/03/09 11:36:00;;;;;;;8.40;3.70;;;;;;;19.56;36.94;98471.84;5112972;28;20222;-66